Qairoon Hairiti, Oman
Current Conditions -  °F | °C
As of 5:50 AM on Saturday 22 Nov 2014 (Local Time) from OOSA Reporting Station
NA  
Wind Chill: 72°   Ceiling: NA
Heat Index: 72°   Visibility: 6mi
Dew Point: 54°   Wind: 0mph
Humidity: 53%   Direction: NA
Pressure: 29.97"   Gusts: NA
Location:  17.25°N, 54.08°E
Report Text: OOSA 220150Z AUTO VRB00KT 9999 22/12 Q1015
Loading
Personal Weather Stations






























Interactive Weather Map New forecast layout! Learn more

10-Day Weather Forecast

Advertisements
Track Severe Weather on mobile